Rose Hill, Kansas
Current Conditions -  °F | °C
As of 5:58 AM on Monday 22 Dec 2014 (Local Time) from KIAB Reporting Station
Overcast Overcast  
Wind Chill: 40°   Ceiling: 300
Heat Index: 44°   Visibility: 9mi
Dew Point: 44°   Wind: 7mph
Humidity: 98%   Direction: 140°SE
Pressure: 29.55"   Gusts: NA
Location:  37.56°N, 97.14°W
Report Text: KIAB 221158Z AUTO 14006KT 9SM R19/5500FT OVC003 07/07 A2955 RMK AO2 SLP012 P0001 60002 70004 T00680065 10068 20063 57009
Loading
Personal Weather Stations






























Interactive Weather Map New forecast layout! Learn more

10-Day Weather Forecast

Advertisements
Track Severe Weather on mobile